createdAt,value
2023-01-07T00:01:39.587Z,0.0
2023-01-07T00:08:01.233Z,0.0
2023-01-07T00:14:22.538Z,0.0
2023-01-07T00:20:45.015Z,0.0
2023-01-07T00:27:04.812Z,0.0
2023-01-07T00:33:24.518Z,0.0
2023-01-07T00:39:44.403Z,0.0
2023-01-07T00:54:23.765Z,0.0
2023-01-07T01:00:43.609Z,0.0
2023-01-07T01:07:50.048Z,0.0
2023-01-07T01:14:15.956Z,0.0
2023-01-07T01:20:36.525Z,0.0
2023-01-07T01:26:55.971Z,0.0
2023-01-07T01:38:03.570Z,0.0
2023-01-07T01:44:23.956Z,0.0
2023-01-07T01:50:43.999Z,0.0
2023-01-07T01:57:03.323Z,0.0
2023-01-07T02:03:22.533Z,0.0
2023-01-07T02:09:43.793Z,0.0
2023-01-07T02:16:03.609Z,0.0
2023-01-07T02:22:23.622Z,0.0
2023-01-07T02:28:43.195Z,0.0
2023-01-07T02:35:02.827Z,0.0
2023-01-07T02:41:21.692Z,0.0
2023-01-07T02:47:41.631Z,0.0
2023-01-07T03:06:12.511Z,0.0
2023-01-07T03:12:31.085Z,0.0
2023-01-07T03:18:50.308Z,0.0
2023-01-07T03:25:09.101Z,0.0
2023-01-07T03:31:28.541Z,0.0
2023-01-07T03:42:24.213Z,0.0
2023-01-07T03:52:17.731Z,0.0
2023-01-07T03:58:36.328Z,0.0
2023-01-07T04:04:54.989Z,0.0
2023-01-07T04:11:14.361Z,0.0
2023-01-07T04:17:33.541Z,0.0
2023-01-07T04:25:10.279Z,0.0
2023-01-07T04:31:29.280Z,0.0
2023-01-07T04:37:48.257Z,0.0
2023-01-07T04:44:07.071Z,0.0
2023-01-07T04:50:25.710Z,0.0
2023-01-07T04:58:20.243Z,0.0
2023-01-07T05:04:39.050Z,0.0
2023-01-07T05:10:58.014Z,0.0
2023-01-07T05:17:16.687Z,0.0
2023-01-07T05:23:36.319Z,0.0
2023-01-07T05:29:56.104Z,0.0
2023-01-07T05:39:13.746Z,0.0
2023-01-07T05:45:34.404Z,0.0
2023-01-07T05:52:04.416Z,0.0
2023-01-07T05:58:23.961Z,0.0
2023-01-07T06:04:43.904Z,0.0
2023-01-07T06:11:03.949Z,0.0
2023-01-07T06:17:22.972Z,0.0
2023-01-07T06:24:23.358Z,0.0
2023-01-07T06:32:11.669Z,0.0
2023-01-07T06:38:31.016Z,0.0
2023-01-07T06:44:50.679Z,0.0
2023-01-07T06:55:00.301Z,0.0
2023-01-07T07:13:21.373Z,0.0
2023-01-07T07:24:44.904Z,0.0
2023-01-07T07:31:04.604Z,0.0
2023-01-07T07:37:24.619Z,0.0
2023-01-07T07:47:23.901Z,0.0
2023-01-07T07:57:50.553Z,1.250167224080268
2023-01-07T08:05:15.748Z,8.21250836120402
2023-01-07T08:11:37.412Z,12.562274247491635
2023-01-07T08:17:59.585Z,13.193411371237456
2023-01-07T08:30:17.590Z,15.856053511705692
2023-01-07T08:41:11.989Z,30.614113712374603
2023-01-07T08:47:33.804Z,27.95986622073577
2023-01-07T08:53:56.141Z,20.42568561872911
2023-01-07T09:00:17.759Z,22.41331103678929
2023-01-07T09:06:40.362Z,26.777625418060225
2023-01-07T09:13:07.837Z,30.90250836120403
2023-01-07T09:21:25.492Z,34.7579933110368
2023-01-07T09:27:49.010Z,35.866889632107
2023-01-07T09:34:12.986Z,37.89458193979931
2023-01-07T09:40:38.055Z,42.76434782608697
2023-01-07T09:49:28.756Z,47.93588628762544
2023-01-07T09:56:11.395Z,41.97367892976588
2023-01-07T10:02:35.762Z,44.118127090300995
2023-01-07T10:15:57.682Z,26.320802675585277
2023-01-07T10:22:20.410Z,23.29217391304347
2023-01-07T10:28:43.048Z,34.20000000000002
2023-01-07T10:44:58.110Z,58.221705685618765
2023-01-07T10:51:20.637Z,59.22401337792647
2023-01-07T10:57:44.934Z,46.393779264214025
2023-01-07T11:09:49.474Z,34.502073578595315
2023-01-07T11:18:58.528Z,35.52464882943146
2023-01-07T11:25:21.173Z,33.3031772575251
2023-01-07T11:31:45.513Z,33.58578595317724
2023-01-07T11:38:07.932Z,30.53832775919734
2023-01-07T11:44:34.025Z,23.671772575250845
2023-01-07T11:50:56.844Z,23.047558528428095
2023-01-07T11:57:19.794Z,27.36916387959866
2023-01-07T12:06:04.937Z,27.081237458193986
2023-01-07T12:12:27.668Z,28.61655518394649
2023-01-07T12:18:51.509Z,32.3480602006689
2023-01-07T12:25:14.291Z,30.372508361204012
2023-01-07T12:31:37.389Z,31.315986622073588
2023-01-07T12:38:00.693Z,34.11260869565213
2023-01-07T12:44:23.793Z,30.058795986622115
2023-01-07T12:50:46.110Z,26.016688963210697
2023-01-07T12:57:08.018Z,27.30491638795987
2023-01-07T13:13:31.208Z,29.107558528428093
2023-01-07T13:19:55.002Z,26.820535117056856
2023-01-07T13:26:19.627Z,23.3186287625418
2023-01-07T13:37:48.922Z,25.365585284280957
2023-01-07T13:44:10.943Z,25.20397993311037
2023-01-07T13:50:32.590Z,22.527357859531786
2023-01-07T13:56:55.883Z,22.73421404682273
2023-01-07T14:07:07.105Z,22.80956521739131
2023-01-07T14:13:29.057Z,19.92113712374582
2023-01-07T14:19:52.565Z,16.62003344481606
2023-01-07T14:26:14.592Z,14.933277591973248
2023-01-07T14:42:15.734Z,9.87561872909699
2023-01-07T14:48:37.678Z,7.986421404682276
2023-01-07T14:54:59.169Z,5.973010033444814
2023-01-07T15:01:21.439Z,3.959933110367893
2023-01-07T15:07:44.023Z,2.5199331103678944
2023-01-07T15:14:07.090Z,1.0733444816053512
2023-01-07T15:23:41.445Z,0.0
2023-01-07T15:30:03.429Z,0.0
2023-01-07T15:37:15.222Z,0.0
2023-01-07T15:56:10.458Z,0.0
2023-01-07T16:02:30.379Z,0.0
2023-01-07T16:08:53.142Z,0.0
2023-01-07T16:18:39.297Z,0.0
2023-01-07T16:25:01.507Z,0.0
2023-01-07T16:31:21.887Z,0.0
2023-01-07T16:40:55.436Z,0.0
2023-01-07T16:51:08.249Z,0.0
2023-01-07T16:57:27.565Z,0.0
2023-01-07T17:03:47.964Z,0.0
2023-01-07T17:10:08.579Z,0.0
2023-01-07T17:16:28.854Z,0.0
2023-01-07T17:22:48.983Z,0.0
2023-01-07T17:29:08.711Z,0.0
2023-01-07T17:35:38.211Z,0.0
2023-01-07T17:42:00.180Z,0.0
2023-01-07T17:48:20.299Z,0.0
2023-01-07T17:54:40.700Z,0.0
2023-01-07T18:01:05.752Z,0.0
2023-01-07T18:10:04.197Z,0.0
2023-01-07T18:16:27.227Z,0.0
2023-01-07T18:23:56.194Z,0.0
2023-01-07T18:34:16.207Z,0.0
2023-01-07T18:40:50.929Z,0.0
2023-01-07T18:47:18.074Z,0.0
2023-01-07T18:53:41.269Z,0.0
2023-01-07T19:00:07.310Z,0.0
2023-01-07T19:06:33.107Z,0.0
2023-01-07T19:13:02.160Z,0.0
2023-01-07T19:31:30.547Z,0.0
2023-01-07T19:40:59.245Z,0.0
2023-01-07T19:47:23.546Z,0.0
2023-01-07T19:53:44.733Z,0.0
2023-01-07T20:03:16.667Z,0.0
2023-01-07T20:09:40.466Z,0.0
2023-01-07T20:16:02.681Z,0.0
2023-01-07T20:22:24.908Z,0.0
2023-01-07T20:28:46.947Z,0.0
2023-01-07T20:35:08.897Z,0.0
2023-01-07T20:42:16.888Z,0.0
2023-01-07T20:48:37.695Z,0.0
2023-01-07T20:55:15.763Z,0.0
2023-01-07T21:06:11.124Z,0.0
2023-01-07T21:13:14.872Z,0.0
2023-01-07T21:23:39.314Z,0.0
2023-01-07T21:31:17.718Z,0.0
2023-01-07T21:37:38.057Z,0.0
2023-01-07T21:43:59.708Z,0.0
2023-01-07T21:56:15.294Z,0.0
2023-01-07T22:03:59.489Z,0.0
2023-01-07T22:13:20.219Z,0.0
2023-01-07T22:19:41.905Z,0.0
2023-01-07T22:26:04.219Z,0.0
2023-01-07T22:32:25.454Z,0.0
2023-01-07T22:38:46.228Z,0.0
2023-01-07T22:45:06.167Z,0.0
2023-01-07T22:56:50.797Z,0.0
2023-01-07T23:03:11.858Z,0.0
2023-01-07T23:09:32.658Z,0.0
2023-01-07T23:15:52.895Z,0.0
2023-01-07T23:28:20.367Z,0.0
2023-01-07T23:34:40.666Z,0.0
2023-01-07T23:41:00.028Z,0.0
2023-01-07T23:47:49.674Z,0.0
2023-01-07T23:57:09.044Z,0.0
